KCAO/CAO METAR and TAF weather

Enter ICAO airport designator
Station Type Date Time Source
KCAO METAR 2019/08/24 08:55 UTC NOAA

KCAO 240855Z AUTO 26006KT 10SM CLR 14/13 A3011 RMK AO2 SLP128 T01390128 58015 $


Station Type Date Time Source
KCAO Decoded METAR 2019/08/24 08:55 UTC NOAA

Station name not available
Aug 24, 2019 - 04:55 AM EDT / 2019.08.24 0855 UTC
Wind: from the W (260 degrees) at 7 MPH (6 KT):0
Visibility: 10 mile(s):0
Sky conditions: clear
Temperature: 57.0 F (13.9 C)
Dew Point: 55.0 F (12.8 C)
Relative Humidity: 93%
Pressure (altimeter): 30.11 in. Hg (1019 hPa)
Pressure tendency: 0.04 inches (1.5 hPa) lower than three hours ago
ob: KCAO 240855Z AUTO 26006KT 10SM CLR 14/13 A3011 RMK AO2 SLP128 T01390128 58015
cycle: 9

Station Type Date Time Source
KCAO TAF UTC NOAA

Error!

Example: see airport list